Portage Southport, Manitoba

6:40 PM CDT on July 03, 2015 (GMT -0500)
Southport | | Change Station
CLOSE
Current Station
Airport
Location: Portage Southport,
Elevation: 883 ft
Nearby Weather Stations

Elev 883 ft 49.90 °N, 98.27 °W | Updated 1 hour ago

Smoke
Smoke
79 °F
Feels Like 79 °F
N
4
Wind Variable Wind from South

Today
High -- | Low -- °F
--% Chance of Precip.
Yesterday
High -- | Low -- °F
Precip. -- in
5:29 AM 9:44 PM
Waning Gibbous, 95% visible
Pressure 29.92 in
Visibility 3.0 miles
Clouds Scattered Clouds 24000 ft
Dew Point 57 °F
Humidity 47%
Rainfall 0.00 in
Snow Depth Not available.
UV 5 out of 12
Pollen Not available.
Air Quality Not available.
Flu Activity Not available.
METAR CYPG 032200Z 17003KT 3SM FU SCT240 26/14 A2992 RMK CI1 DA2618FT LAST OBS/NEXT 061100 UTC SLP132

More Conditions Fewer Conditions

Pressure 29.92 in
Visibility 3.0 miles
Clouds Scattered Clouds 24000 ft
Dew Point 57 °F
Humidity 47%
Rainfall 0.00 in
Snow Depth Not available.
UV 5 out of 12
Pollen Not available.
Air Quality Not available.
Flu Activity Not available.
METAR CYPG 032200Z 17003KT 3SM FU SCT240 26/14 A2992 RMK CI1 DA2618FT LAST OBS/NEXT 061100 UTC SLP132

More Conditions Fewer Conditions

10-Day Weather Forecast

×

Almanac

Astronomy

Jul. 03, 2015 Rise Set
Actual Time
Civil Twilight
Nautical Twilight
Astronomical Twilight
Moon
Length of Visible Light
Length of Day
Tomorrow will be .
, % of the Moon is Illuminated

Today's Extremes

Country Highs Country Lows

Community

WunderPhotos

Upload Photos

1,834,823 photos uploaded!

WunderBlogs® & News

Nearby

Air Quality

  Air Quality AQ Index Pollutant
Not available.

Snow Depth

Station Depth Elevation

Earthquake Activity

City Distance Mag. Time & Date
Minimum magnitude displayed is 2.5.

Coastal Water Temperatures

Place Temperature

Stations

Nearby Weather Stations

Station Location Temp. Windchill Dew Point Humidity Wind Precip. Elev Updated Type